createdAt,value
2018-08-12T00:01:01.803Z,79.93
2018-08-12T00:03:30.917Z,80.37
2018-08-12T00:06:06.169Z,80.52
2018-08-12T00:08:34.943Z,80.57
2018-08-12T00:11:03.747Z,80.53
2018-08-12T00:13:33.590Z,80.90
2018-08-12T00:16:02.327Z,81.31
2018-08-12T00:18:31.599Z,81.48
2018-08-12T00:21:00.458Z,81.79
2018-08-12T00:23:29.715Z,81.96
2018-08-12T00:25:58.873Z,82.04
2018-08-12T00:28:28.338Z,82.04
2018-08-12T00:30:57.543Z,81.91
2018-08-12T00:33:26.714Z,81.92
2018-08-12T00:35:55.473Z,82.12
2018-08-12T00:38:24.303Z,82.00
2018-08-12T00:40:53.510Z,82.71
2018-08-12T00:43:22.468Z,82.48
2018-08-12T00:45:51.284Z,83.11
2018-08-12T00:48:20.067Z,83.46
2018-08-12T00:50:48.856Z,83.45
2018-08-12T00:53:17.647Z,83.24
2018-08-12T00:55:46.491Z,83.45
2018-08-12T00:58:15.650Z,83.71
2018-08-12T01:00:44.685Z,83.49
2018-08-12T01:03:13.779Z,83.27
2018-08-12T01:05:42.552Z,83.27
2018-08-12T01:08:11.305Z,83.29
2018-08-12T01:10:40.731Z,83.66
2018-08-12T01:13:09.483Z,83.49
2018-08-12T01:15:38.544Z,83.70
2018-08-12T01:18:08.053Z,83.92
2018-08-12T01:20:37.323Z,84.11
2018-08-12T01:23:06.619Z,84.46
2018-08-12T01:25:35.320Z,84.08
2018-08-12T01:28:04.431Z,84.16
2018-08-12T01:30:33.471Z,84.22
2018-08-12T01:33:02.472Z,84.76
2018-08-12T01:35:31.581Z,84.69
2018-08-12T01:38:00.357Z,84.55
2018-08-12T01:40:29.308Z,84.29
2018-08-12T01:42:58.222Z,84.63
2018-08-12T01:45:27.099Z,84.59
2018-08-12T01:47:56.549Z,84.61
2018-08-12T01:50:26.595Z,84.41
2018-08-12T01:52:55.799Z,85.09
2018-08-12T01:55:24.933Z,85.06
2018-08-12T01:57:54.065Z,85.16
2018-08-12T02:00:23.612Z,84.51
2018-08-12T02:02:53.162Z,84.92
2018-08-12T02:05:22.181Z,84.92
2018-08-12T02:07:51.062Z,85.18
2018-08-12T02:10:19.965Z,85.29
2018-08-12T02:12:49.002Z,84.96
2018-08-12T02:15:18.856Z,85.02
2018-08-12T02:17:47.790Z,84.91
2018-08-12T02:20:17.019Z,84.71
2018-08-12T02:22:46.746Z,84.54
2018-08-12T02:25:15.562Z,84.86
2018-08-12T02:27:45.745Z,84.87
2018-08-12T02:30:15.405Z,85.05
2018-08-12T02:32:45.367Z,85.29
2018-08-12T02:35:14.876Z,84.87
2018-08-12T02:37:45.412Z,84.82
2018-08-12T02:40:15.501Z,84.99
2018-08-12T02:42:44.312Z,84.42
2018-08-12T02:45:15.545Z,84.73
2018-08-12T02:47:44.879Z,84.43
2018-08-12T02:50:14.466Z,84.93
2018-08-12T02:52:44.016Z,84.49
2018-08-12T02:55:14.181Z,84.95
2018-08-12T02:57:43.364Z,84.99
2018-08-12T03:00:13.323Z,85.10
2018-08-12T03:02:42.814Z,84.90
2018-08-12T03:05:12.352Z,84.89
2018-08-12T03:07:41.436Z,84.80
2018-08-12T03:10:10.590Z,85.46
2018-08-12T03:12:39.579Z,85.44
2018-08-12T03:15:10.527Z,85.41
2018-08-12T03:17:40.320Z,85.48
2018-08-12T03:20:13.785Z,85.51
2018-08-12T03:22:43.233Z,85.32
2018-08-12T03:25:12.133Z,85.80
2018-08-12T03:27:41.271Z,86.12
2018-08-12T03:30:11.712Z,86.46
2018-08-12T03:32:41.040Z,86.62
2018-08-12T03:35:10.148Z,87.05
2018-08-12T03:37:39.267Z,87.06
2018-08-12T03:40:10.712Z,87.28
2018-08-12T03:42:39.496Z,87.50
2018-08-12T03:45:08.976Z,87.71
2018-08-12T03:47:38.006Z,88.14
2018-08-12T03:50:08.112Z,87.99
2018-08-12T03:52:37.317Z,88.25
2018-08-12T03:55:06.342Z,88.59
2018-08-12T03:57:35.543Z,88.50
2018-08-12T04:00:05.768Z,88.50
2018-08-12T04:02:34.509Z,88.71
2018-08-12T04:05:03.565Z,88.78
2018-08-12T04:07:32.374Z,88.33
2018-08-12T04:10:01.477Z,88.99
2018-08-12T04:12:30.722Z,89.22
2018-08-12T04:14:59.740Z,89.14
2018-08-12T04:17:29.652Z,88.89
2018-08-12T04:19:58.669Z,89.39
2018-08-12T04:22:27.442Z,89.70
2018-08-12T04:24:56.183Z,89.79
2018-08-12T04:27:25.344Z,90.37
2018-08-12T04:29:54.345Z,90.80
2018-08-12T04:32:23.352Z,90.93
2018-08-12T04:34:52.078Z,91.18
2018-08-12T04:37:21.067Z,91.68
2018-08-12T04:39:49.833Z,91.41
2018-08-12T04:42:18.585Z,91.52
2018-08-12T04:44:47.684Z,91.27
2018-08-12T04:47:16.455Z,91.20
2018-08-12T04:49:45.465Z,91.58
2018-08-12T04:52:14.232Z,90.92
2018-08-12T04:54:42.985Z,91.04
2018-08-12T04:57:11.741Z,90.92
2018-08-12T04:59:40.479Z,90.51
2018-08-12T05:02:09.464Z,90.21
2018-08-12T05:04:39.669Z,90.40
2018-08-12T05:07:09.088Z,90.31
2018-08-12T05:09:37.896Z,90.23
2018-08-12T05:12:07.245Z,90.29
2018-08-12T05:14:36.307Z,90.61
2018-08-12T05:17:06.184Z,90.40
2018-08-12T05:19:35.258Z,90.22
2018-08-12T05:22:04.624Z,89.65
2018-08-12T05:24:33.559Z,89.74
2018-08-12T05:27:02.811Z,89.16
2018-08-12T05:29:32.835Z,88.66
2018-08-12T05:32:02.407Z,88.69
2018-08-12T05:34:32.215Z,88.20
2018-08-12T05:37:01.007Z,87.88
2018-08-12T05:39:30.111Z,87.87
2018-08-12T05:41:59.816Z,87.96
2018-08-12T05:44:29.151Z,86.93
2018-08-12T05:46:58.680Z,86.42
2018-08-12T05:49:28.332Z,85.71
2018-08-12T05:51:57.498Z,84.99
2018-08-12T05:54:26.467Z,84.71
2018-08-12T05:56:55.278Z,84.95
2018-08-12T05:59:24.926Z,85.09
2018-08-12T06:01:53.834Z,85.00
2018-08-12T06:04:23.611Z,83.73
2018-08-12T06:06:52.451Z,83.95
2018-08-12T06:09:21.653Z,84.43
2018-08-12T06:11:50.536Z,83.91
2018-08-12T06:14:19.279Z,84.12
2018-08-12T06:16:48.354Z,84.17
2018-08-12T06:19:17.108Z,84.45
2018-08-12T06:21:45.933Z,84.79
2018-08-12T06:24:14.653Z,84.85
2018-08-12T06:26:43.382Z,84.87
2018-08-12T06:29:12.440Z,84.69
2018-08-12T06:31:41.439Z,85.00
2018-08-12T06:34:10.196Z,84.87
2018-08-12T06:36:39.277Z,84.35
2018-08-12T06:39:10.198Z,84.35
2018-08-12T06:41:39.267Z,84.45
2018-08-12T06:44:08.618Z,84.02
2018-08-12T06:46:37.328Z,84.26
2018-08-12T06:49:06.178Z,83.67
2018-08-12T06:51:35.061Z,83.26
2018-08-12T06:54:03.802Z,83.30
2018-08-12T06:56:33.417Z,83.36
2018-08-12T06:59:02.184Z,82.99
2018-08-12T07:01:30.945Z,82.43
2018-08-12T07:04:00.159Z,82.65
2018-08-12T07:06:28.920Z,82.47
2018-08-12T07:08:57.723Z,81.89
2018-08-12T07:11:26.507Z,81.87
2018-08-12T07:13:55.581Z,81.98
2018-08-12T07:16:24.318Z,81.42
2018-08-12T07:18:53.167Z,81.36
2018-08-12T07:21:22.210Z,80.62
2018-08-12T07:23:51.002Z,81.15
2018-08-12T07:26:19.749Z,81.10
2018-08-12T07:28:49.297Z,81.06
2018-08-12T07:31:18.428Z,80.10
2018-08-12T07:33:47.156Z,80.41
2018-08-12T07:36:15.916Z,79.83
2018-08-12T07:38:44.805Z,79.67
2018-08-12T07:41:13.705Z,78.90
2018-08-12T07:43:42.995Z,77.52
2018-08-12T07:46:11.720Z,76.69
2018-08-12T07:48:40.843Z,76.67
2018-08-12T07:51:09.575Z,75.16
2018-08-12T07:53:38.626Z,75.30
2018-08-12T07:56:07.756Z,75.33
2018-08-12T07:58:36.761Z,74.75
2018-08-12T08:01:05.707Z,74.21
2018-08-12T08:03:34.798Z,73.50
2018-08-12T08:06:03.912Z,73.13
2018-08-12T08:08:33.133Z,73.42
2018-08-12T08:11:02.364Z,72.54
2018-08-12T08:13:31.527Z,71.73
2018-08-12T08:16:00.698Z,70.96
2018-08-12T08:18:29.707Z,70.18
2018-08-12T08:20:58.481Z,69.66
2018-08-12T08:23:27.279Z,68.43
2018-08-12T08:25:56.393Z,68.04
2018-08-12T08:28:25.093Z,69.00
2018-08-12T08:30:54.499Z,69.09
2018-08-12T08:33:23.542Z,68.08
2018-08-12T08:35:52.511Z,67.17
2018-08-12T08:38:21.303Z,67.84
2018-08-12T08:40:50.031Z,67.47
2018-08-12T08:43:18.749Z,67.71
2018-08-12T08:45:47.931Z,67.56
2018-08-12T08:48:17.261Z,66.80
2018-08-12T08:50:46.419Z,66.82
2018-08-12T08:53:15.080Z,66.32
2018-08-12T08:55:44.432Z,65.99
2018-08-12T08:58:13.157Z,66.60
2018-08-12T09:00:42.138Z,66.54
2018-08-12T09:03:11.173Z,66.18
2018-08-12T09:05:40.543Z,64.80
2018-08-12T09:08:09.382Z,65.51
2018-08-12T09:10:38.631Z,64.75
2018-08-12T09:13:07.405Z,65.17
2018-08-12T09:15:36.211Z,64.14
2018-08-12T09:18:05.239Z,64.08
2018-08-12T09:20:34.236Z,63.95
2018-08-12T09:23:06.133Z,63.16
2018-08-12T09:25:35.864Z,62.98
2018-08-12T09:28:04.629Z,62.33
2018-08-12T09:30:33.383Z,62.68
2018-08-12T09:33:02.202Z,62.42
2018-08-12T09:35:30.991Z,61.27
2018-08-12T09:38:00.189Z,61.22
2018-08-12T09:40:28.937Z,60.39
2018-08-12T09:42:58.170Z,60.05
2018-08-12T09:45:27.343Z,58.15
2018-08-12T09:47:56.089Z,57.94
2018-08-12T09:50:25.156Z,58.44
2018-08-12T09:52:54.926Z,57.58
2018-08-12T09:55:24.151Z,58.27
2018-08-12T09:57:53.365Z,57.13
2018-08-12T10:00:32.889Z,57.29
2018-08-12T10:03:01.679Z,57.37
2018-08-12T10:05:30.458Z,56.85
2018-08-12T10:07:59.897Z,56.74
2018-08-12T10:10:29.010Z,57.19
2018-08-12T10:12:58.113Z,56.29
2018-08-12T10:15:26.905Z,55.02
2018-08-12T10:17:58.174Z,55.07
2018-08-12T10:20:27.309Z,53.63
2018-08-12T10:22:56.458Z,53.55
2018-08-12T10:25:25.491Z,53.25
2018-08-12T10:27:54.610Z,54.54
2018-08-12T10:30:23.620Z,52.63
2018-08-12T10:32:52.787Z,52.70
2018-08-12T10:35:22.550Z,51.95
2018-08-12T10:37:51.324Z,52.32
2018-08-12T10:40:21.903Z,52.21
2018-08-12T10:42:51.238Z,51.90
2018-08-12T10:45:20.428Z,51.87
2018-08-12T10:47:49.226Z,51.60
2018-08-12T10:50:19.246Z,50.72
2018-08-12T10:52:49.031Z,51.20
2018-08-12T10:55:19.655Z,51.99
2018-08-12T10:57:48.473Z,50.59
2018-08-12T11:00:20.098Z,50.93
2018-08-12T11:02:50.098Z,51.71
2018-08-12T11:05:19.137Z,51.30
2018-08-12T11:07:51.002Z,51.22
2018-08-12T11:10:20.186Z,51.34
2018-08-12T11:12:49.355Z,51.98
2018-08-12T11:15:18.334Z,52.33
2018-08-12T11:17:47.089Z,51.33
2018-08-12T11:20:16.235Z,52.40
2018-08-12T11:22:45.229Z,51.76
2018-08-12T11:25:14.263Z,52.66
2018-08-12T11:27:43.014Z,52.34
2018-08-12T11:30:15.900Z,51.37
2018-08-12T11:32:44.708Z,51.84
2018-08-12T11:35:14.991Z,52.16
2018-08-12T11:37:44.234Z,52.55
2018-08-12T11:40:14.129Z,51.80
2018-08-12T11:42:43.315Z,52.22
2018-08-12T11:45:14.067Z,51.80
2018-08-12T11:47:43.644Z,52.14
2018-08-12T11:50:14.609Z,52.34
2018-08-12T11:52:44.758Z,51.92
2018-08-12T11:55:16.636Z,52.62
2018-08-12T11:57:45.380Z,52.63
2018-08-12T12:00:19.323Z,52.08
2018-08-12T12:02:50.429Z,51.18
2018-08-12T12:05:19.164Z,52.60
2018-08-12T12:07:48.023Z,52.08
2018-08-12T12:10:19.999Z,51.77
2018-08-12T12:12:50.772Z,50.12
2018-08-12T12:15:20.139Z,50.06
2018-08-12T12:17:49.823Z,50.57
2018-08-12T12:20:19.420Z,49.87
2018-08-12T12:22:48.646Z,49.34
2018-08-12T12:25:18.855Z,47.31
2018-08-12T12:27:47.622Z,45.47
2018-08-12T12:30:17.785Z,46.94
2018-08-12T12:32:47.845Z,45.50
2018-08-12T12:35:16.581Z,45.26
2018-08-12T12:37:48.274Z,44.21
2018-08-12T12:40:18.205Z,42.75
2018-08-12T12:42:48.427Z,42.53
2018-08-12T12:45:18.451Z,41.75
2018-08-12T12:47:47.226Z,42.39
2018-08-12T12:50:18.401Z,41.32
2018-08-12T12:52:49.231Z,41.57
2018-08-12T12:55:18.559Z,41.93
2018-08-12T12:57:47.784Z,42.19
2018-08-12T13:00:18.207Z,41.98
2018-08-12T13:02:47.240Z,42.08
2018-08-12T13:05:17.999Z,41.64
2018-08-12T13:07:47.811Z,41.18
2018-08-12T13:10:17.765Z,41.64
2018-08-12T13:12:46.569Z,41.17
2018-08-12T13:15:16.163Z,40.65
2018-08-12T13:17:45.478Z,41.27
2018-08-12T13:20:16.409Z,42.17
2018-08-12T13:22:46.606Z,41.36
2018-08-12T13:25:17.469Z,40.14
2018-08-12T13:27:46.624Z,39.91
2018-08-12T13:30:16.313Z,39.80
2018-08-12T13:32:46.913Z,39.45
2018-08-12T13:35:15.968Z,39.41
2018-08-12T13:37:44.697Z,39.27
2018-08-12T13:40:14.910Z,39.03
2018-08-12T13:42:44.458Z,39.26
2018-08-12T13:45:13.922Z,39.57
2018-08-12T13:47:43.994Z,39.08
2018-08-12T13:50:22.416Z,39.66
2018-08-12T13:52:51.836Z,39.19
2018-08-12T13:55:21.183Z,39.32
2018-08-12T13:57:50.524Z,39.12
2018-08-12T14:00:21.029Z,39.47
2018-08-12T14:02:50.046Z,40.26
2018-08-12T14:05:19.553Z,39.26
2018-08-12T14:07:48.858Z,40.07
2018-08-12T14:10:17.609Z,40.29
2018-08-12T14:12:46.885Z,41.09
2018-08-12T14:15:17.676Z,40.34
2018-08-12T14:17:47.584Z,39.83
2018-08-12T14:20:17.794Z,41.02
2018-08-12T14:22:47.471Z,41.68
2018-08-12T14:25:16.575Z,40.95
2018-08-12T14:27:45.950Z,41.24
2018-08-12T14:30:17.021Z,41.46
2018-08-12T14:32:46.608Z,41.62
2018-08-12T14:35:15.643Z,41.12
2018-08-12T14:37:44.841Z,39.72
2018-08-12T14:40:14.267Z,39.67
2018-08-12T14:42:43.262Z,40.20
2018-08-12T14:45:13.213Z,39.34
2018-08-12T14:47:42.144Z,38.57
2018-08-12T14:50:12.673Z,39.60
2018-08-12T14:52:41.560Z,38.28
2018-08-12T14:55:10.938Z,37.44
2018-08-12T14:57:40.100Z,37.45
2018-08-12T15:00:12.439Z,36.63
2018-08-12T15:02:41.488Z,37.47
2018-08-12T15:05:10.633Z,36.44
2018-08-12T15:07:39.889Z,37.50
2018-08-12T15:10:10.608Z,36.50
2018-08-12T15:12:39.931Z,38.16
2018-08-12T15:15:10.957Z,37.36
2018-08-12T15:17:41.054Z,37.62
2018-08-12T15:20:10.116Z,37.86
2018-08-12T15:22:39.171Z,37.37
2018-08-12T15:25:09.855Z,35.35
2018-08-12T15:27:39.438Z,36.60
2018-08-12T15:30:09.740Z,36.83
2018-08-12T15:32:38.666Z,36.87
2018-08-12T15:35:08.246Z,36.03
2018-08-12T15:37:37.310Z,36.15
2018-08-12T15:40:08.645Z,35.70
2018-08-12T15:42:37.385Z,34.91
2018-08-12T15:45:09.302Z,36.13
2018-08-12T15:47:38.319Z,36.45
2018-08-12T15:50:08.173Z,36.12
2018-08-12T15:52:36.930Z,36.35
2018-08-12T15:55:06.571Z,36.18
2018-08-12T15:57:35.965Z,37.31
2018-08-12T16:00:14.066Z,37.50
2018-08-12T16:02:43.802Z,37.91
2018-08-12T16:05:12.812Z,38.22
2018-08-12T16:07:41.576Z,38.45
2018-08-12T16:10:16.185Z,38.06
2018-08-12T16:12:45.779Z,39.62
2018-08-12T16:15:14.563Z,39.36
2018-08-12T16:17:43.461Z,38.10
2018-08-12T16:20:13.050Z,38.86
2018-08-12T16:22:42.317Z,39.75
2018-08-12T16:25:13.986Z,39.60
2018-08-12T16:27:43.416Z,39.04
2018-08-12T16:30:13.639Z,39.24
2018-08-12T16:32:42.455Z,38.92
2018-08-12T16:35:12.919Z,39.20
2018-08-12T16:37:42.517Z,39.50
2018-08-12T16:40:13.218Z,39.86
2018-08-12T16:42:42.238Z,39.32
2018-08-12T16:45:12.819Z,39.38
2018-08-12T16:47:42.025Z,39.42
2018-08-12T16:50:11.793Z,39.44
2018-08-12T16:52:41.321Z,39.33
2018-08-12T16:55:12.140Z,39.22
2018-08-12T16:57:40.857Z,39.93
2018-08-12T17:00:17.875Z,40.30
2018-08-12T17:02:47.312Z,40.76
2018-08-12T17:05:18.493Z,40.49
2018-08-12T17:07:47.318Z,40.95
2018-08-12T17:10:17.503Z,40.77
2018-08-12T17:12:46.741Z,41.11
2018-08-12T17:15:17.738Z,40.68
2018-08-12T17:17:47.031Z,41.33
2018-08-12T17:20:16.896Z,41.36
2018-08-12T17:22:46.217Z,41.36
2018-08-12T17:25:14.987Z,41.63
2018-08-12T17:27:44.050Z,41.73
2018-08-12T17:30:14.333Z,41.94
2018-08-12T17:32:43.067Z,42.10
2018-08-12T17:35:11.865Z,42.73
2018-08-12T17:37:41.218Z,42.25
2018-08-12T17:40:12.092Z,43.11
2018-08-12T17:42:41.168Z,42.10
2018-08-12T17:45:11.373Z,42.66
2018-08-12T17:47:40.598Z,42.65
2018-08-12T17:50:10.982Z,43.58
2018-08-12T17:52:39.847Z,43.64
2018-08-12T17:55:08.891Z,43.95
2018-08-12T17:57:37.641Z,44.22
2018-08-12T18:00:08.864Z,44.40
2018-08-12T18:02:38.537Z,44.06
2018-08-12T18:05:08.128Z,44.80
2018-08-12T18:07:37.620Z,44.87
2018-08-12T18:10:06.634Z,45.25
2018-08-12T18:12:36.612Z,45.34
2018-08-12T18:15:06.851Z,45.29
2018-08-12T18:17:36.060Z,44.80
2018-08-12T18:20:05.790Z,45.15
2018-08-12T18:22:35.407Z,45.73
2018-08-12T18:25:04.843Z,45.50
2018-08-12T18:27:33.916Z,45.52
2018-08-12T18:30:02.727Z,46.14
2018-08-12T18:32:31.794Z,46.81
2018-08-12T18:35:00.942Z,46.98
2018-08-12T18:37:29.733Z,46.84
2018-08-12T18:39:58.471Z,47.19
2018-08-12T18:42:27.288Z,46.70
2018-08-12T18:44:56.046Z,46.41
2018-08-12T18:47:25.246Z,47.14
2018-08-12T18:49:54.630Z,46.50
2018-08-12T18:52:23.483Z,47.32
2018-08-12T18:54:53.366Z,46.69
2018-08-12T18:57:22.129Z,47.15
2018-08-12T18:59:51.288Z,47.16
2018-08-12T19:02:20.214Z,47.91
2018-08-12T19:04:48.946Z,47.19
2018-08-12T19:07:17.721Z,47.03
2018-08-12T19:09:46.497Z,46.90
2018-08-12T19:12:15.303Z,47.66
2018-08-12T19:14:44.308Z,48.30
2018-08-12T19:17:13.190Z,48.30
2018-08-12T19:19:41.912Z,48.40
2018-08-12T19:22:11.164Z,48.74
2018-08-12T19:24:40.311Z,49.23
2018-08-12T19:27:09.098Z,49.22
2018-08-12T19:29:37.805Z,49.60
2018-08-12T19:32:06.631Z,50.08
2018-08-12T19:34:35.390Z,50.40
2018-08-12T19:37:04.975Z,50.91
2018-08-12T19:39:33.756Z,51.23
2018-08-12T19:42:02.526Z,50.85
2018-08-12T19:44:31.281Z,51.55
2018-08-12T19:47:00.045Z,51.52
2018-08-12T19:49:28.804Z,51.93
2018-08-12T19:51:57.865Z,52.35
2018-08-12T19:54:26.819Z,52.79
2018-08-12T19:56:55.629Z,52.84
2018-08-12T19:59:24.673Z,53.50
2018-08-12T20:01:53.651Z,53.64
2018-08-12T20:04:22.433Z,53.78
2018-08-12T20:06:51.174Z,53.34
2018-08-12T20:09:19.913Z,53.79
2018-08-12T20:11:49.081Z,54.27
2018-08-12T20:14:18.391Z,54.42
2018-08-12T20:16:47.354Z,55.22
2018-08-12T20:19:16.381Z,55.38
2018-08-12T20:21:45.155Z,54.99
2018-08-12T20:24:14.019Z,55.62
2018-08-12T20:26:42.707Z,55.22
2018-08-12T20:29:12.263Z,55.94
2018-08-12T20:31:41.039Z,56.23
2018-08-12T20:34:10.339Z,56.27
2018-08-12T20:36:39.402Z,56.73
2018-08-12T20:39:12.720Z,56.55
2018-08-12T20:41:42.131Z,56.95
2018-08-12T20:44:11.246Z,56.86
2018-08-12T20:46:39.964Z,57.10
2018-08-12T20:49:09.120Z,57.64
2018-08-12T20:51:37.885Z,58.03
2018-08-12T20:54:06.613Z,58.12
2018-08-12T20:56:36.513Z,58.56
2018-08-12T20:59:05.238Z,58.93
2018-08-12T21:01:33.989Z,59.19
2018-08-12T21:04:03.085Z,59.84
2018-08-12T21:06:31.907Z,59.99
2018-08-12T21:09:01.582Z,59.82
2018-08-12T21:11:31.675Z,60.03
2018-08-12T21:14:00.466Z,60.29
2018-08-12T21:16:29.224Z,59.79
2018-08-12T21:18:58.246Z,60.42
2018-08-12T21:21:27.045Z,60.49
2018-08-12T21:23:55.906Z,60.51
2018-08-12T21:26:25.195Z,60.21
2018-08-12T21:28:54.760Z,60.27
2018-08-12T21:31:23.887Z,60.35
2018-08-12T21:33:53.280Z,60.75
2018-08-12T21:36:25.161Z,60.67
2018-08-12T21:38:53.995Z,61.39
2018-08-12T21:41:22.929Z,61.26
2018-08-12T21:43:52.083Z,61.89
2018-08-12T21:46:21.238Z,62.02
2018-08-12T21:48:50.019Z,61.39
2018-08-12T21:51:18.982Z,61.51
2018-08-12T21:53:47.779Z,61.91
2018-08-12T21:56:16.513Z,61.29
2018-08-12T21:58:45.520Z,62.05
2018-08-12T22:01:14.621Z,61.75
2018-08-12T22:03:43.961Z,61.84
2018-08-12T22:06:13.499Z,61.98
2018-08-12T22:08:42.331Z,62.10
2018-08-12T22:11:11.281Z,62.63
2018-08-12T22:13:40.348Z,62.96
2018-08-12T22:16:09.214Z,63.42
2018-08-12T22:18:38.097Z,63.57
2018-08-12T22:21:07.239Z,63.52
2018-08-12T22:23:36.366Z,64.21
2018-08-12T22:26:05.422Z,64.22
2018-08-12T22:28:35.466Z,64.17
2018-08-12T22:31:04.187Z,64.21
2018-08-12T22:33:32.939Z,64.36
2018-08-12T22:36:02.011Z,64.63
2018-08-12T22:38:31.179Z,64.48
2018-08-12T22:41:00.155Z,65.12
2018-08-12T22:43:28.918Z,64.47
2018-08-12T22:45:57.833Z,64.16
2018-08-12T22:48:26.780Z,64.83
2018-08-12T22:50:55.727Z,64.98
2018-08-12T22:53:24.511Z,64.99
2018-08-12T22:55:53.386Z,64.88
2018-08-12T22:58:22.808Z,63.97
2018-08-12T23:00:52.025Z,64.61
2018-08-12T23:03:20.774Z,64.22
2018-08-12T23:05:49.563Z,64.31
2018-08-12T23:08:18.316Z,64.75
2018-08-12T23:10:47.140Z,64.53
2018-08-12T23:13:16.930Z,64.42
2018-08-12T23:16:23.968Z,64.27
2018-08-12T23:18:52.735Z,64.03
2018-08-12T23:21:21.937Z,64.24
2018-08-12T23:23:52.201Z,64.47
2018-08-12T23:26:22.679Z,64.39
2018-08-12T23:28:51.645Z,64.86
2018-08-12T23:31:20.458Z,64.29
2018-08-12T23:33:49.346Z,64.78
2018-08-12T23:36:18.139Z,64.60
2018-08-12T23:38:46.956Z,64.64
2018-08-12T23:41:16.295Z,64.71
2018-08-12T23:43:45.065Z,64.82
2018-08-12T23:46:14.506Z,65.02
2018-08-12T23:48:43.298Z,64.86
2018-08-12T23:51:12.438Z,64.99
2018-08-12T23:53:41.868Z,63.91
2018-08-12T23:56:10.783Z,64.44
2018-08-12T23:58:40.074Z,64.74
